Time;durP1;ratioP1;P1;durP2;ratioP2;P2;SDS_P1;SDS_P2;PMS_P1;PMS_P2;Temp;Humidity;BMP_temperature;BMP_pressure;BME280_temperature;BME280_humidity;BME280_pressure;Samples;Min_cycle;Max_cycle;Signal;HPM_P1;HPM_P2
2023/01/12 00:01:14;;;;;;;1.25;0.95;;;;;;;2.62;54.40;92720.31;5050539;28;20048;-78
2023/01/12 00:07:33;;;;;;;2.15;1.02;;;;;;;2.75;55.44;92715.84;5039922;28;20072;-78
2023/01/12 00:13:53;;;;;;;1.15;0.85;;;;;;;2.81;55.50;92720.09;5039284;28;20033;-78
2023/01/12 00:19:41;;;;;;;0.95;0.75;;;;;;;2.87;55.87;92734.69;5039611;28;20025;-78
2023/01/12 00:22:10;;;;;;;1.05;0.77;;;;;;;2.83;56.12;92729.19;5040254;28;20045;-78
2023/01/12 00:24:54;;;;;;;1.10;0.70;;;;;;;2.83;56.15;92733.59;5039777;28;20057;-77
2023/01/12 00:27:21;;;;;;;0.68;0.68;;;;;;;2.83;55.92;92731.78;5039763;28;20491;-78
2023/01/12 00:29:47;;;;;;;1.10;0.80;;;;;;;2.84;55.98;92737.75;5038486;28;20081;-78
2023/01/12 00:36:12;;;;;;;0.52;0.52;;;;;;;3.16;53.62;92722.50;5040070;28;20108;-78
2023/01/12 00:47:48;;;;;;;0.70;0.63;;;;;;;3.88;51.67;92739.88;5035788;28;20137;-78
2023/01/12 00:50:13;;;;;;;0.52;0.50;;;;;;;3.90;50.42;92735.25;5018937;28;20078;-79
2023/01/12 00:52:58;;;;;;;0.60;0.60;;;;;;;4.05;49.89;92749.41;5035946;28;20100;-78
2023/01/12 00:55:23;;;;;;;0.70;0.70;;;;;;;4.20;48.84;92741.84;5019514;28;20046;-78
2023/01/12 00:57:49;;;;;;;0.70;0.70;;;;;;;4.34;48.35;92743.03;5022310;28;20034;-78
2023/01/12 01:00:21;;;;;;;1.42;0.80;;;;;;;4.44;48.08;92747.59;5040341;28;20044;-78
2023/01/12 01:02:46;;;;;;;0.47;0.47;;;;;;;4.53;47.79;92753.13;5042030;28;20053;-78
2023/01/12 01:05:12;;;;;;;0.63;0.63;;;;;;;4.77;46.72;92745.84;5041580;28;20060;-78
2023/01/12 01:07:37;;;;;;;0.65;0.65;;;;;;;4.81;46.60;92749.53;5042019;28;20087;-78
2023/01/12 01:10:03;;;;;;;0.95;0.85;;;;;;;4.82;47.53;92753.72;5042432;28;20084;-78
2023/01/12 01:12:29;;;;;;;0.60;0.60;;;;;;;5.01;46.22;92756.75;5040941;28;20037;-78
2023/01/12 01:15:13;;;;;;;1.00;0.90;;;;;;;4.99;46.46;92748.41;5042489;28;20041;-78
2023/01/12 01:17:38;;;;;;;1.30;0.65;;;;;;;5.04;45.54;92750.28;5041946;28;20112;-78
2023/01/12 01:20:04;;;;;;;0.70;0.70;;;;;;;5.04;45.63;92748.47;5051813;28;20064;-79
2023/01/12 01:26:24;;;;;;;0.75;0.75;;;;;;;4.96;45.66;92748.91;5044331;28;20116;-78
2023/01/12 01:29:09;;;;;;;0.60;0.60;;;;;;;4.89;45.85;92758.72;5041977;28;20042;-78
2023/01/12 01:31:36;;;;;;;0.85;0.80;;;;;;;4.77;46.17;92753.63;5039961;28;20037;-78
2023/01/12 01:34:01;;;;;;;0.77;0.70;;;;;;;4.70;46.69;92761.59;5041219;28;20041;-78
2023/01/12 01:40:21;;;;;;;3.13;0.80;;;;;;;4.82;45.22;92758.91;5021230;28;20044;-78
2023/01/12 01:42:48;;;;;;;1.58;0.73;;;;;;;4.87;44.91;92755.56;5021360;28;20125;-78
2023/01/12 01:45:15;;;;;;;0.60;0.60;;;;;;;4.96;44.73;92761.88;5020266;28;20048;-78
2023/01/12 01:47:52;;;;;;;0.75;0.70;;;;;;;4.96;44.17;92760.06;5035098;28;20057;-78
2023/01/12 01:50:21;;;;;;;0.50;0.50;;;;;;;4.98;43.83;92759.84;5037341;28;20102;-78
2023/01/12 01:52:54;;;;;;;0.88;0.70;;;;;;;5.05;43.65;92768.22;5040057;28;20029;-78
2023/01/12 01:55:27;;;;;;;0.60;0.60;;;;;;;5.08;43.38;92759.16;5041373;28;20041;-78
2023/01/12 01:58:17;;;;;;;0.63;0.63;;;;;;;5.16;43.17;92769.88;5030370;28;20152;-78
2023/01/12 02:00:43;;;;;;;1.02;0.80;;;;;;;5.15;42.98;92757.91;5021448;28;20038;-78
2023/01/12 02:03:11;;;;;;;0.50;0.50;;;;;;;5.21;42.17;92762.13;5020430;28;20065;-78
2023/01/12 02:09:31;;;;;;;0.60;0.60;;;;;;;5.39;41.25;92752.41;5041485;28;20484;-78
2023/01/12 02:18:41;;;;;;;0.50;0.50;;;;;;;5.62;40.04;92740.91;5019803;28;20037;-78
2023/01/12 02:24:30;;;;;;;0.50;0.50;;;;;;;5.69;39.69;92745.88;5021646;28;20065;-78
2023/01/12 02:27:28;;;;;;;0.68;0.63;;;;;;;5.67;39.20;92747.94;5031201;28;20033;-78
2023/01/12 02:36:25;;;;;;;0.60;0.60;;;;;;;5.75;38.58;92737.09;5041342;28;20045;-78
2023/01/12 02:39:04;;;;;;;0.60;0.60;;;;;;;5.74;38.58;92728.53;5039386;28;20060;-78
2023/01/12 02:48:53;;;;;;;0.50;0.50;;;;;;;5.71;38.52;92728.25;5038065;28;20048;-78
2023/01/12 02:51:57;;;;;;;0.82;0.70;;;;;;;5.65;38.44;92748.19;5041615;28;20037;-78
2023/01/12 02:54:26;;;;;;;0.60;0.60;;;;;;;5.64;38.42;92744.81;5041796;28;20037;-78
2023/01/12 02:56:55;;;;;;;0.50;0.50;;;;;;;5.56;39.03;92737.50;5039637;28;20492;-78
2023/01/12 03:02:50;;;;;;;0.90;0.80;;;;;;;5.48;38.88;92729.38;5040995;28;20057;-78
2023/01/12 03:05:21;;;;;;;0.80;0.80;;;;;;;5.41;39.05;92725.19;5040347;28;20048;-78
2023/01/12 03:08:03;;;;;;;1.42;0.70;;;;;;;5.41;38.67;92729.59;5040513;28;20479;-78
2023/01/12 03:11:01;;;;;;;1.40;0.70;;;;;;;5.41;39.00;92739.97;5040814;28;20033;-78
2023/01/12 03:13:30;;;;;;;0.80;0.77;;;;;;;5.33;38.96;92737.81;5040804;28;20047;-78
2023/01/12 03:15:57;;;;;;;0.60;0.60;;;;;;;5.34;39.02;92735.00;5036636;28;20030;-78
2023/01/12 03:18:46;;;;;;;0.77;0.70;;;;;;;5.29;39.45;92736.75;5020653;28;20136;-78
2023/01/12 03:21:23;;;;;;;0.60;0.60;;;;;;;5.25;39.47;92735.69;5029025;28;20057;-78
2023/01/12 03:31:01;;;;;;;0.70;0.65;;;;;;;5.11;39.35;92746.47;5020870;28;20514;-78
2023/01/12 03:33:26;;;;;;;0.50;0.50;;;;;;;5.17;39.34;92744.69;5020200;28;20200;-78
2023/01/12 03:36:15;;;;;;;0.85;0.70;;;;;;;5.20;39.79;92759.75;5020151;28;20077;-78
2023/01/12 03:38:46;;;;;;;0.55;0.55;;;;;;;5.25;39.65;92762.44;5039321;28;20037;-78
2023/01/12 03:41:39;;;;;;;0.60;0.60;;;;;;;5.31;39.02;92760.66;5038668;28;20427;-78
2023/01/12 03:44:11;;;;;;;0.93;0.80;;;;;;;5.31;39.06;92758.06;5036768;28;20132;-79
2023/01/12 03:46:46;;;;;;;0.52;0.52;;;;;;;5.24;39.19;92760.06;5039889;28;20064;-78
2023/01/12 03:49:25;;;;;;;0.60;0.60;;;;;;;5.23;39.40;92759.28;5040237;28;20044;-78
2023/01/12 03:52:40;;;;;;;1.73;0.90;;;;;;;5.18;39.91;92767.03;5040893;28;20050;-78
2023/01/12 03:55:09;;;;;;;1.70;0.77;;;;;;;5.13;39.88;92759.19;5040083;28;20076;-78
2023/01/12 03:57:37;;;;;;;0.60;0.60;;;;;;;5.13;39.81;92749.59;5039536;28;20017;-78
2023/01/12 04:00:06;;;;;;;1.08;0.73;;;;;;;5.13;39.84;92744.38;5040014;28;20041;-78
2023/01/12 04:02:38;;;;;;;0.68;0.68;;;;;;;5.12;39.66;92742.84;5040021;28;20503;-78
2023/01/12 04:05:06;;;;;;;0.77;0.70;;;;;;;5.06;40.30;92745.63;5040905;28;20037;-78
2023/01/12 04:14:05;;;;;;;1.67;0.70;;;;;;;5.01;40.57;92759.34;5021687;28;20084;-78
2023/01/12 04:16:30;;;;;;;0.80;0.80;;;;;;;5.06;40.19;92756.78;5020464;28;20034;-78
2023/01/12 04:18:56;;;;;;;0.50;0.50;;;;;;;5.16;39.81;92758.72;5020038;28;20036;-78
2023/01/12 04:24:08;;;;;;;0.57;0.57;;;;;;;5.04;39.89;92756.25;5019783;28;20038;-78
2023/01/12 04:26:33;;;;;;;0.85;0.73;;;;;;;5.05;40.14;92772.63;5020239;28;20026;-78
2023/01/12 04:32:21;;;;;;;1.65;0.70;;;;;;;5.05;40.27;92763.00;5039115;28;20088;-78
2023/01/12 04:34:46;;;;;;;0.90;0.90;;;;;;;5.03;40.91;92759.88;5039442;28;20050;-78
2023/01/12 04:41:07;;;;;;;0.88;0.70;;;;;;;4.99;40.86;92753.59;5039751;28;20120;-78
2023/01/12 04:44:11;;;;;;;0.88;0.70;;;;;;;4.97;39.99;92764.22;5039619;28;20113;-78
2023/01/12 04:46:37;;;;;;;1.48;0.82;;;;;;;4.96;40.09;92767.84;5025220;28;20171;-78
2023/01/12 04:49:02;;;;;;;0.93;0.77;;;;;;;4.97;40.03;92782.38;5042656;28;20075;-78
2023/01/12 04:51:28;;;;;;;0.60;0.60;;;;;;;5.03;39.67;92783.22;5024626;28;20123;-78
2023/01/12 04:54:33;;;;;;;0.70;0.70;;;;;;;5.07;39.00;92786.91;5042895;28;20037;-78
2023/01/12 04:56:58;;;;;;;0.60;0.60;;;;;;;5.09;38.64;92792.66;5040846;28;20033;-78
2023/01/12 04:59:24;;;;;;;0.65;0.55;;;;;;;5.04;39.20;92796.97;5041673;28;20052;-78
2023/01/12 05:05:44;;;;;;;0.50;0.50;;;;;;;4.95;39.37;92794.84;5040878;28;20044;-78
2023/01/12 05:11:43;;;;;;;0.60;0.60;;;;;;;4.76;40.81;92801.38;5022952;28;20105;-78
2023/01/12 05:14:08;;;;;;;0.77;0.60;;;;;;;4.69;40.57;92787.81;5023088;28;20097;-78
2023/01/12 05:20:28;;;;;;;2.10;1.10;;;;;;;4.57;43.02;92793.09;5033047;28;20070;-78
2023/01/12 05:26:20;;;;;;;0.98;0.80;;;;;;;4.31;42.76;92797.97;5026123;28;20507;-78
2023/01/12 05:28:50;;;;;;;0.80;0.70;;;;;;;4.21;42.43;92799.63;5021047;28;20026;-78
2023/01/12 05:34:38;;;;;;;0.70;0.63;;;;;;;4.14;42.02;92803.19;5019111;28;20034;-78
2023/01/12 05:37:03;;;;;;;1.08;0.80;;;;;;;4.15;42.05;92801.38;5047311;28;20041;-78
2023/01/12 05:39:31;;;;;;;0.85;0.75;;;;;;;4.14;42.37;92804.97;5040359;28;20068;-78
2023/01/12 05:44:47;;;;;;;1.02;0.82;;;;;;;4.12;42.48;92804.44;5041020;28;20057;-78
2023/01/12 05:47:12;;;;;;;1.05;0.90;;;;;;;4.07;42.77;92812.16;5040155;28;20033;-78
2023/01/12 05:49:38;;;;;;;0.95;0.80;;;;;;;4.03;43.19;92816.22;5038352;28;20025;-78
2023/01/12 05:52:03;;;;;;;1.50;0.90;;;;;;;3.93;43.90;92820.25;5034805;28;20116;-78
2023/01/12 05:54:30;;;;;;;0.85;0.70;;;;;;;3.87;43.61;92816.03;5040890;28;20041;-77
2023/01/12 05:56:55;;;;;;;0.70;0.70;;;;;;;3.82;44.57;92821.09;5039610;28;20025;-78
2023/01/12 05:59:22;;;;;;;0.93;0.80;;;;;;;3.72;44.55;92811.38;5020148;28;20060;-79
2023/01/12 06:01:47;;;;;;;1.30;0.90;;;;;;;3.63;44.87;92804.25;5033713;28;20479;-78
2023/01/12 06:04:13;;;;;;;0.70;0.70;;;;;;;3.65;45.03;92823.72;5032960;28;20094;-78
2023/01/12 06:06:38;;;;;;;0.68;0.60;;;;;;;3.65;44.57;92822.94;5028652;28;20037;-77
2023/01/12 06:09:04;;;;;;;0.80;0.75;;;;;;;3.65;44.44;92831.47;5028875;28;20049;-78
2023/01/12 06:14:14;;;;;;;2.47;0.70;;;;;;;3.69;44.20;92834.38;5027989;28;20499;-77
2023/01/12 06:16:41;;;;;;;0.95;0.90;;;;;;;3.66;44.69;92835.63;5031880;28;20034;-77
2023/01/12 06:19:08;;;;;;;1.08;0.98;;;;;;;3.61;45.43;92847.72;5015927;28;20144;-78
2023/01/12 06:21:34;;;;;;;0.80;0.80;;;;;;;3.51;46.05;92850.91;5033195;28;20120;-78
2023/01/12 06:23:59;;;;;;;1.52;0.95;;;;;;;3.44;46.17;92853.63;5016457;28;20526;-78
2023/01/12 06:26:25;;;;;;;0.68;0.65;;;;;;;3.40;46.83;92846.56;5034170;28;20029;-77
2023/01/12 06:28:51;;;;;;;0.70;0.70;;;;;;;3.32;47.80;92856.28;5033629;28;20061;-77
2023/01/12 06:31:16;;;;;;;1.00;0.88;;;;;;;3.23;47.82;92862.84;5015596;28;20040;-77
2023/01/12 06:33:42;;;;;;;0.80;0.80;;;;;;;3.22;47.94;92857.91;5017497;28;20037;-77
2023/01/12 06:36:09;;;;;;;3.45;0.80;;;;;;;3.18;48.54;92869.75;5039452;28;20033;-77
2023/01/12 06:38:36;;;;;;;1.55;0.98;;;;;;;3.09;49.58;92877.88;5039335;28;20096;-77
2023/01/12 06:41:02;;;;;;;1.77;0.98;;;;;;;3.04;49.63;92874.38;5033699;28;20103;-78
2023/01/12 06:43:28;;;;;;;2.55;1.08;;;;;;;3.02;49.75;92877.22;5032429;28;20033;-77
2023/01/12 06:45:54;;;;;;;1.77;0.93;;;;;;;3.00;49.46;92878.47;5030992;28;20037;-77
2023/01/12 06:48:22;;;;;;;1.75;1.10;;;;;;;2.97;49.79;92886.66;5030182;28;20053;-77
2023/01/12 06:50:49;;;;;;;0.80;0.80;;;;;;;2.93;50.08;92888.94;5030869;28;20064;-77
2023/01/12 06:53:16;;;;;;;1.10;0.80;;;;;;;2.92;49.93;92877.00;5035715;28;20033;-78
2023/01/12 06:55:48;;;;;;;1.60;0.70;;;;;;;2.93;49.19;92873.44;5029376;28;20051;-77
2023/01/12 06:58:14;;;;;;;0.87;0.80;;;;;;;2.92;49.24;92882.19;5013814;28;20543;-77
2023/01/12 07:00:39;;;;;;;1.13;0.80;;;;;;;2.92;49.26;92874.41;5003009;28;20285;-77
2023/01/12 07:03:05;;;;;;;1.17;0.95;;;;;;;2.91;49.07;92888.38;5026694;28;20045;-76
2023/01/12 07:05:30;;;;;;;1.13;0.80;;;;;;;2.92;49.11;92882.19;5031903;28;20516;-77
2023/01/12 07:07:59;;;;;;;1.67;1.00;;;;;;;2.96;48.32;92883.31;5033220;28;20036;-77
2023/01/12 07:10:25;;;;;;;1.13;0.70;;;;;;;2.95;48.26;92892.09;5033503;28;20049;-77
2023/01/12 07:12:53;;;;;;;1.65;0.77;;;;;;;2.90;48.79;92900.53;5034236;28;20052;-77
2023/01/12 07:15:18;;;;;;;0.73;0.73;;;;;;;2.92;48.83;92903.66;5034393;28;20026;-77
2023/01/12 07:17:44;;;;;;;1.70;1.00;;;;;;;2.95;48.76;92899.84;5033457;28;20041;-77
2023/01/12 07:20:11;;;;;;;0.70;0.70;;;;;;;2.98;48.77;92901.97;5034411;28;20038;-77
2023/01/12 07:22:36;;;;;;;1.00;0.75;;;;;;;3.02;48.50;92908.25;5033667;28;20495;-77
2023/01/12 07:25:02;;;;;;;1.02;0.80;;;;;;;3.05;48.84;92912.97;5032868;28;20116;-77
2023/01/12 07:27:27;;;;;;;0.80;0.80;;;;;;;3.13;48.14;92920.38;5033315;28;20152;-77
2023/01/12 07:29:53;;;;;;;0.98;0.80;;;;;;;3.21;48.05;92916.63;5033666;28;20060;-77
2023/01/12 07:32:18;;;;;;;0.80;0.80;;;;;;;3.32;47.61;92922.78;5033041;28;20384;-77
2023/01/12 07:34:44;;;;;;;2.10;0.90;;;;;;;3.46;47.29;92921.47;5034519;28;20499;-77
2023/01/12 07:37:09;;;;;;;1.08;0.98;;;;;;;3.86;46.83;92925.03;5034545;28;20029;-77
2023/01/12 07:39:35;;;;;;;1.38;0.93;;;;;;;4.59;47.08;92928.47;5034657;28;20095;-77
2023/01/12 07:44:44;;;;;;;3.92;1.20;;;;;;;7.16;43.78;92931.66;5039265;28;20041;-79
2023/01/12 07:47:10;;;;;;;3.85;1.33;;;;;;;8.43;40.60;92931.19;5037115;28;20137;-79
2023/01/12 07:49:36;;;;;;;6.65;1.50;;;;;;;8.99;39.12;92929.56;5043710;28;20033;-78
2023/01/12 07:52:01;;;;;;;3.13;1.20;;;;;;;9.12;37.41;92937.63;5043711;28;20038;-79
2023/01/12 07:54:27;;;;;;;1.63;0.93;;;;;;;8.90;37.72;92935.31;5042543;28;20041;-78
2023/01/12 07:56:54;;;;;;;2.38;1.20;;;;;;;8.77;37.97;92935.09;5039542;28;20083;-78
2023/01/12 07:59:20;;;;;;;1.30;1.02;;;;;;;9.17;37.58;92942.06;5037718;28;20045;-77
2023/01/12 08:01:45;;;;;;;1.00;0.90;;;;;;;10.34;36.25;92939.94;5038367;28;20555;-80
2023/01/12 08:04:12;;;;;;;2.15;1.10;;;;;;;11.55;35.32;92927.75;5040050;28;20045;-80
2023/01/12 08:06:39;;;;;;;2.15;1.17;;;;;;;12.60;33.06;92940.78;5035959;28;20117;-80
2023/01/12 08:09:05;;;;;;;2.00;1.10;;;;;;;13.12;31.34;92934.38;5036923;28;20060;-81
2023/01/12 08:11:31;;;;;;;2.17;1.20;;;;;;;13.37;31.68;92940.25;5038459;28;20029;-79
2023/01/12 08:13:57;;;;;;;1.63;1.10;;;;;;;13.17;31.41;92940.63;5037961;28;20042;-80
2023/01/12 08:16:44;;;;;;;4.80;1.55;;;;;;;12.21;33.00;92950.53;5040403;28;20283;-80
2023/01/12 08:19:21;;;;;;;3.40;1.50;;;;;;;12.36;33.65;92948.75;5029642;28;20025;-79
2023/01/12 08:21:56;;;;;;;3.88;1.70;;;;;;;12.26;33.42;92947.84;5044697;28;20423;-79
2023/01/12 08:24:33;;;;;;;3.20;1.63;;;;;;;12.26;33.28;92950.47;5041175;28;20494;-79
2023/01/12 08:27:03;;;;;;;4.32;1.80;;;;;;;11.66;33.61;92947.56;5040613;28;20033;-80
2023/01/12 08:29:39;;;;;;;3.85;1.90;;;;;;;11.48;35.25;92949.06;5044295;28;20033;-79
2023/01/12 08:32:06;;;;;;;4.22;2.00;;;;;;;11.24;36.35;92946.47;5035476;28;20133;-79
2023/01/12 08:34:34;;;;;;;3.15;1.70;;;;;;;10.97;35.44;92952.25;5040028;28;20029;-80
2023/01/12 08:37:05;;;;;;;4.65;1.88;;;;;;;10.52;36.28;92954.19;5041550;28;20037;-79
2023/01/12 08:39:33;;;;;;;3.28;1.92;;;;;;;10.35;37.59;92962.41;5040800;28;20061;-79
2023/01/12 08:41:58;;;;;;;5.45;1.90;;;;;;;10.17;38.76;92967.22;5040397;28;20057;-80
2023/01/12 08:44:28;;;;;;;6.43;1.70;;;;;;;9.76;41.32;92956.97;5041231;28;20064;-79
2023/01/12 08:46:53;;;;;;;2.97;1.50;;;;;;;9.91;38.59;92968.44;5041090;28;20056;-79
2023/01/12 08:49:25;;;;;;;5.43;1.60;;;;;;;10.06;37.86;92975.38;5041299;28;20041;-78
2023/01/12 08:51:50;;;;;;;3.20;1.40;;;;;;;9.72;38.63;92979.47;5035557;28;20483;-80
2023/01/12 08:54:17;;;;;;;1.45;0.93;;;;;;;9.80;37.67;92991.22;5038766;28;20287;-81
2023/01/12 08:56:44;;;;;;;1.63;0.95;;;;;;;9.54;37.97;92991.31;5038700;28;20072;-80
2023/01/12 08:59:10;;;;;;;5.22;1.30;;;;;;;9.28;39.35;92997.69;5037169;28;20034;-80
2023/01/12 09:01:35;;;;;;;3.25;1.75;;;;;;;9.09;42.18;92994.81;5039759;28;20034;-80
2023/01/12 09:04:01;;;;;;;4.97;2.05;;;;;;;8.81;43.27;93007.38;5038942;28;20052;-80
2023/01/12 09:06:29;;;;;;;3.25;1.98;;;;;;;8.93;43.72;93002.66;5018433;28;20048;-80
2023/01/12 09:09:00;;;;;;;3.03;1.67;;;;;;;8.86;41.40;92996.94;5038793;28;20491;-80
2023/01/12 09:11:28;;;;;;;3.25;1.73;;;;;;;8.52;39.74;93000.06;5040553;28;20568;-79
2023/01/12 09:13:57;;;;;;;3.58;1.80;;;;;;;8.61;40.20;92999.56;5041608;28;20052;-80
2023/01/12 09:16:24;;;;;;;3.00;1.45;;;;;;;8.51;39.01;93001.13;5039263;28;20058;-80
2023/01/12 09:18:51;;;;;;;3.25;1.60;;;;;;;8.72;39.21;93001.13;5040558;28;20029;-79
2023/01/12 09:21:19;;;;;;;2.67;1.70;;;;;;;8.49;39.19;93007.66;5040775;28;20426;-79
2023/01/12 09:23:45;;;;;;;3.92;1.70;;;;;;;8.22;40.71;93007.81;5039735;28;20041;-80
2023/01/12 09:26:13;;;;;;;4.78;1.95;;;;;;;8.16;40.19;93016.69;5038174;28;20112;-78
2023/01/12 09:28:39;;;;;;;3.25;1.30;;;;;;;8.04;40.83;93019.53;5040073;28;20093;-79
2023/01/12 09:31:10;;;;;;;3.05;1.48;;;;;;;7.81;40.02;93023.34;5042413;28;20064;-79
2023/01/12 09:33:37;;;;;;;3.70;2.10;;;;;;;7.80;42.10;93032.22;5042696;28;20055;-79
2023/01/12 09:36:09;;;;;;;2.47;1.40;;;;;;;7.64;42.47;93028.78;5032830;28;20072;-79
2023/01/12 09:38:36;;;;;;;3.03;1.40;;;;;;;7.69;42.52;93034.78;5023075;28;20037;-79
2023/01/12 09:41:09;;;;;;;4.45;2.08;;;;;;;7.63;45.81;93035.81;5033662;28;20530;-79
2023/01/12 09:49:23;;;;;;;3.08;1.80;;;;;;;7.45;45.11;93033.63;5039838;28;20211;-79
2023/01/12 09:52:06;;;;;;;3.72;2.05;;;;;;;7.75;44.89;93042.66;5040274;28;20041;-79
2023/01/12 09:54:34;;;;;;;4.05;2.00;;;;;;;8.11;44.20;93041.72;5037589;28;20029;-79
2023/01/12 09:57:33;;;;;;;3.45;1.80;;;;;;;8.56;44.10;93047.31;5039315;28;20026;-78
2023/01/12 10:00:31;;;;;;;3.25;1.83;;;;;;;8.89;42.48;93043.44;5047903;28;20030;-79
2023/01/12 10:03:06;;;;;;;2.33;1.50;;;;;;;9.29;39.87;93046.25;5034335;28;20067;-79
2023/01/12 10:05:35;;;;;;;1.70;1.20;;;;;;;9.65;39.27;93040.94;5040739;28;20276;-79
2023/01/12 10:08:01;;;;;;;3.40;1.67;;;;;;;9.92;39.55;93054.44;5040235;28;20522;-79
2023/01/12 10:10:26;;;;;;;5.22;1.80;;;;;;;9.64;40.34;93050.63;5043504;28;20057;-79
2023/01/12 10:12:58;;;;;;;3.75;1.75;;;;;;;9.52;41.64;93050.13;5040641;28;20030;-79
2023/01/12 10:15:39;;;;;;;4.28;2.15;;;;;;;9.28;41.79;93044.69;5040381;28;20029;-79
2023/01/12 10:18:25;;;;;;;3.35;1.90;;;;;;;8.79;41.58;93055.69;5041742;28;20021;-79
2023/01/12 10:20:51;;;;;;;3.53;1.95;;;;;;;8.76;42.25;93064.81;5040406;28;20052;-79
2023/01/12 10:23:23;;;;;;;4.47;1.92;;;;;;;8.84;42.74;93060.91;5040169;28;20038;-79
2023/01/12 10:25:55;;;;;;;3.63;1.77;;;;;;;9.26;44.46;93060.63;5039326;28;20041;-79
2023/01/12 10:28:28;;;;;;;4.72;2.05;;;;;;;9.34;41.32;93070.56;5037141;28;20046;-79
2023/01/12 10:30:55;;;;;;;5.00;2.00;;;;;;;9.30;41.89;93077.34;5055246;28;20030;-79
2023/01/12 10:33:31;;;;;;;3.90;2.00;;;;;;;9.50;41.93;93065.28;5048446;28;20025;-78
2023/01/12 10:36:18;;;;;;;5.57;2.38;;;;;;;9.50;42.34;93058.25;5050891;28;20044;-78
2023/01/12 10:39:00;;;;;;;4.07;1.90;;;;;;;9.52;41.27;93050.13;5046414;28;20515;-79
2023/01/12 10:41:28;;;;;;;4.32;2.35;;;;;;;9.76;41.19;93040.63;5041655;28;20056;-78
2023/01/12 10:43:57;;;;;;;3.92;2.00;;;;;;;9.71;40.10;93048.50;5042164;28;20029;-79
2023/01/12 10:46:26;;;;;;;3.72;2.08;;;;;;;9.67;40.67;93052.69;5040479;28;20029;-79
2023/01/12 10:49:21;;;;;;;5.22;2.40;;;;;;;10.04;41.84;93054.13;5041594;28;20056;-79
2023/01/12 10:51:58;;;;;;;4.95;2.70;;;;;;;10.12;43.05;93050.97;5040305;28;20561;-79
2023/01/12 10:54:30;;;;;;;7.95;2.92;;;;;;;10.09;40.94;93027.97;5040949;28;20025;-78
2023/01/12 10:57:04;;;;;;;4.38;2.42;;;;;;;9.88;42.47;93035.09;5038812;28;20100;-79
2023/01/12 10:59:36;;;;;;;4.20;2.30;;;;;;;9.83;41.89;93039.56;5040022;28;20041;-79
2023/01/12 11:02:12;;;;;;;4.82;2.55;;;;;;;9.90;41.11;93035.63;5038709;28;20080;-79
2023/01/12 11:04:51;;;;;;;5.22;2.40;;;;;;;9.72;39.91;93038.81;5039179;28;20072;-78
2023/01/12 11:07:30;;;;;;;4.38;2.30;;;;;;;9.71;40.49;93032.03;5034433;28;20037;-76
2023/01/12 11:10:36;;;;;;;6.03;2.88;;;;;;;10.05;42.29;93032.16;5035733;28;20037;-77
2023/01/12 11:13:03;;;;;;;6.03;2.67;;;;;;;10.34;41.90;93042.00;5037327;28;20046;-78
2023/01/12 11:15:37;;;;;;;6.70;2.80;;;;;;;10.23;40.39;93038.63;5040513;28;20025;-79
2023/01/12 11:18:21;;;;;;;3.53;2.08;;;;;;;10.13;41.03;93039.47;5040691;28;20128;-79
2023/01/12 11:21:03;;;;;;;4.22;2.20;;;;;;;9.75;40.71;93038.31;5040247;28;20543;-78
2023/01/12 11:23:48;;;;;;;3.97;2.25;;;;;;;9.82;39.05;93045.84;5039106;28;20093;-78
2023/01/12 11:26:21;;;;;;;4.07;2.38;;;;;;;10.10;40.66;93042.59;5037502;28;20037;-78
2023/01/12 11:28:51;;;;;;;5.57;2.80;;;;;;;10.05;39.60;93040.00;5039311;28;20037;-78
2023/01/12 11:31:27;;;;;;;4.40;2.20;;;;;;;10.24;40.35;93031.53;5039334;28;20120;-79
2023/01/12 11:34:10;;;;;;;4.03;2.00;;;;;;;10.10;38.35;93013.81;5039609;28;20040;-78
2023/01/12 11:36:45;;;;;;;6.60;2.53;;;;;;;10.17;39.17;93019.53;5039976;28;20064;-78
2023/01/12 11:39:32;;;;;;;7.05;2.63;;;;;;;10.29;39.99;93010.59;5039215;28;20044;-78
2023/01/12 11:44:50;;;;;;;4.63;2.45;;;;;;;10.38;37.19;93001.13;5038400;28;20064;-79
2023/01/12 11:47:22;;;;;;;3.10;1.58;;;;;;;10.32;32.90;93000.38;5039680;28;20048;-78
2023/01/12 11:50:06;;;;;;;3.13;1.38;;;;;;;10.04;33.67;92987.94;5039420;28;20041;-78
2023/01/12 11:52:32;;;;;;;4.25;1.90;;;;;;;9.98;37.20;93000.28;5023925;28;20452;-78
2023/01/12 11:54:58;;;;;;;3.58;1.70;;;;;;;10.39;33.56;92994.84;5047079;28;20033;-77
2023/01/12 11:57:35;;;;;;;3.83;1.50;;;;;;;10.72;32.80;92987.28;5045864;28;20069;-77
2023/01/12 12:00:22;;;;;;;2.45;1.30;;;;;;;10.97;30.61;92994.94;5045424;28;20086;-78
2023/01/12 12:03:13;;;;;;;1.80;1.10;;;;;;;11.32;31.23;92984.38;5057904;28;20033;-77
2023/01/12 12:06:18;;;;;;;3.30;1.73;;;;;;;11.60;32.47;92978.31;5057300;28;20038;-77
2023/01/12 12:09:08;;;;;;;3.75;2.20;;;;;;;11.88;33.77;92981.94;5046331;28;20033;-78
2023/01/12 12:12:16;;;;;;;5.93;3.00;;;;;;;11.90;36.74;92970.38;5044553;28;20029;-78
2023/01/12 12:14:57;;;;;;;3.22;1.67;;;;;;;11.03;32.08;92978.13;5032782;28;20041;-78
2023/01/12 12:17:41;;;;;;;2.22;1.33;;;;;;;10.95;34.34;92973.47;5044002;28;20034;-78
2023/01/12 12:20:31;;;;;;;3.95;2.20;;;;;;;11.11;35.27;92968.09;5043569;28;20029;-78
2023/01/12 12:23:10;;;;;;;5.07;2.13;;;;;;;10.87;34.41;92963.56;5042757;28;20043;-78
2023/01/12 12:26:06;;;;;;;4.78;2.50;;;;;;;10.55;37.74;92962.28;5043948;28;20060;-77
2023/01/12 12:28:51;;;;;;;4.18;2.53;;;;;;;10.73;39.95;92965.28;5043024;28;20091;-78
2023/01/12 12:31:50;;;;;;;5.32;3.13;;;;;;;10.62;41.21;92961.97;5042266;28;20025;-78
2023/01/12 12:34:19;;;;;;;8.60;2.90;;;;;;;10.91;42.24;92955.97;5043917;28;20036;-78
2023/01/12 12:37:11;;;;;;;8.25;4.13;;;;;;;10.75;43.63;92947.47;5043835;28;20395;-78
2023/01/12 12:39:58;;;;;;;6.30;3.20;;;;;;;10.58;42.78;92956.50;5041800;28;20530;-78
2023/01/12 12:45:57;;;;;;;6.57;3.05;;;;;;;10.67;39.70;92958.50;5039994;28;20074;-78
2023/01/12 12:48:46;;;;;;;4.95;2.85;;;;;;;10.80;41.19;92960.50;5041922;28;20462;-78
2023/01/12 12:51:13;;;;;;;5.32;2.70;;;;;;;10.87;38.33;92950.47;5045720;28;20026;-78
2023/01/12 12:53:44;;;;;;;5.13;2.85;;;;;;;11.07;39.09;92951.34;5027115;28;20041;-78
2023/01/12 12:56:13;;;;;;;6.97;3.10;;;;;;;11.08;41.13;92950.28;5043501;28;20088;-78
2023/01/12 12:58:40;;;;;;;5.35;2.90;;;;;;;11.06;39.62;92944.56;5047119;28;20056;-79
2023/01/12 13:01:23;;;;;;;8.27;2.95;;;;;;;10.36;40.36;92943.84;5043746;28;20475;-78
2023/01/12 13:03:54;;;;;;;6.45;2.97;;;;;;;10.36;41.51;92943.06;5043439;28;20040;-78
2023/01/12 13:06:29;;;;;;;5.00;2.33;;;;;;;10.28;39.70;92941.00;5039753;28;20052;-78
2023/01/12 13:08:58;;;;;;;5.35;2.30;;;;;;;10.14;37.31;92925.91;5039707;28;20138;-78
2023/01/12 13:11:54;;;;;;;3.50;2.00;;;;;;;10.00;36.19;92922.34;5040250;28;20080;-78
2023/01/12 13:14:29;;;;;;;2.83;1.58;;;;;;;10.24;33.90;92913.81;5040216;28;20033;-78
2023/01/12 13:17:00;;;;;;;3.58;1.80;;;;;;;10.28;34.60;92906.97;5040249;28;20064;-78
2023/01/12 13:19:37;;;;;;;2.83;1.50;;;;;;;10.59;33.48;92920.63;5039877;28;20043;-78
2023/01/12 13:22:36;;;;;;;3.33;1.55;;;;;;;10.75;33.31;92916.03;5038828;28;20044;-78
2023/01/12 13:25:23;;;;;;;3.40;1.73;;;;;;;10.94;33.02;92921.34;5039760;28;20058;-78
2023/01/12 13:27:51;;;;;;;3.63;1.55;;;;;;;10.98;32.65;92917.91;5040905;28;20119;-78
2023/01/12 13:30:27;;;;;;;3.35;1.70;;;;;;;10.92;31.95;92913.78;5040007;28;20552;-78
2023/01/12 13:33:14;;;;;;;5.97;1.80;;;;;;;10.90;34.85;92915.09;5039956;28;20044;-78
2023/01/12 13:35:39;;;;;;;7.28;2.63;;;;;;;10.68;37.58;92918.97;5038726;28;20040;-78
2023/01/12 13:38:23;;;;;;;4.70;1.92;;;;;;;10.68;35.41;92923.44;5039863;28;20017;-78
2023/01/12 13:40:50;;;;;;;3.60;1.73;;;;;;;10.79;34.60;92917.81;5038820;28;20061;-78
2023/01/12 13:43:21;;;;;;;4.47;1.92;;;;;;;10.92;33.79;92913.78;5039857;28;20071;-77
2023/01/12 13:46:03;;;;;;;3.15;1.73;;;;;;;11.04;34.07;92916.78;5039919;28;20610;-78
2023/01/12 13:48:34;;;;;;;6.13;1.90;;;;;;;11.04;34.23;92921.25;5038527;28;20559;-78
2023/01/12 13:51:14;;;;;;;4.03;1.85;;;;;;;10.96;34.80;92906.91;5038216;28;20511;-78
2023/01/12 13:53:40;;;;;;;3.95;2.30;;;;;;;10.74;38.00;92906.59;5038799;28;20040;-78
2023/01/12 13:56:06;;;;;;;5.90;2.33;;;;;;;10.37;38.93;92914.00;5039446;28;20029;-78
2023/01/12 13:58:41;;;;;;;6.30;2.30;;;;;;;9.99;37.74;92918.16;5039789;28;20033;-78
2023/01/12 14:01:21;;;;;;;4.18;2.38;;;;;;;9.73;40.03;92918.31;5039889;28;20033;-78
2023/01/12 14:04:05;;;;;;;3.70;1.95;;;;;;;9.90;37.09;92925.00;5040085;28;20060;-78
2023/01/12 14:06:56;;;;;;;3.90;2.05;;;;;;;9.89;36.08;92926.06;5039716;28;20025;-78
2023/01/12 14:09:58;;;;;;;3.50;1.83;;;;;;;9.72;35.49;92924.56;5039509;28;20379;-78